createdAt,value
2023-05-15T00:01:43.888Z,2.76
2023-05-15T00:04:10.252Z,2.62
2023-05-15T00:06:36.629Z,2.54
2023-05-15T00:09:03.029Z,2.97
2023-05-15T00:11:29.413Z,2.83
2023-05-15T00:13:55.781Z,2.77
2023-05-15T00:16:22.249Z,2.78
2023-05-15T00:18:48.851Z,2.78
2023-05-15T00:21:15.257Z,2.81
2023-05-15T00:23:41.668Z,2.99
2023-05-15T00:26:08.041Z,2.89
2023-05-15T00:28:34.437Z,2.91
2023-05-15T00:31:00.878Z,2.73
2023-05-15T00:33:27.303Z,3.04
2023-05-15T00:35:53.671Z,3.35
2023-05-15T00:38:20.060Z,3.64
2023-05-15T00:40:46.445Z,3.59
2023-05-15T00:43:12.818Z,3.17
2023-05-15T00:45:39.247Z,3.07
2023-05-15T00:48:05.669Z,3.30
2023-05-15T00:50:32.083Z,3.26
2023-05-15T00:52:58.492Z,3.09
2023-05-15T00:55:25.119Z,3.15
2023-05-15T00:57:51.668Z,3.05
2023-05-15T01:00:18.109Z,3.21
2023-05-15T01:02:44.551Z,2.98
2023-05-15T01:05:11.052Z,3.27
2023-05-15T01:07:37.469Z,3.37
2023-05-15T01:10:03.795Z,3.10
2023-05-15T01:12:30.169Z,3.29
2023-05-15T01:14:56.583Z,3.25
2023-05-15T01:17:22.954Z,3.32
2023-05-15T01:19:49.434Z,3.71
2023-05-15T01:22:15.943Z,3.43
2023-05-15T01:24:42.322Z,3.62
2023-05-15T01:27:08.696Z,3.50
2023-05-15T01:29:35.098Z,3.52
2023-05-15T01:32:01.514Z,3.91
2023-05-15T01:34:27.882Z,3.73
2023-05-15T01:36:54.283Z,3.54
2023-05-15T01:39:20.655Z,3.53
2023-05-15T01:41:47.028Z,3.74
2023-05-15T01:44:13.445Z,3.69
2023-05-15T01:46:39.927Z,3.50
2023-05-15T01:49:06.352Z,3.89
2023-05-15T01:51:32.759Z,3.37
2023-05-15T01:53:59.150Z,3.49
2023-05-15T01:56:27.062Z,3.47
2023-05-15T01:58:53.573Z,3.65
2023-05-15T02:01:19.981Z,3.55
2023-05-15T02:03:46.514Z,3.59
2023-05-15T02:06:13.019Z,3.64
2023-05-15T02:08:39.416Z,3.50
2023-05-15T02:11:05.804Z,3.80
2023-05-15T02:13:32.228Z,3.52
2023-05-15T02:15:58.665Z,3.82
2023-05-15T02:18:25.058Z,3.62
2023-05-15T02:20:51.465Z,3.63
2023-05-15T02:23:17.845Z,3.87
2023-05-15T02:25:44.221Z,4.20
2023-05-15T02:28:10.749Z,4.08
2023-05-15T02:30:37.115Z,4.32
2023-05-15T02:33:03.510Z,3.94
2023-05-15T02:35:29.923Z,3.75
2023-05-15T02:37:56.292Z,3.63
2023-05-15T02:40:22.660Z,3.84
2023-05-15T02:42:49.067Z,3.85
2023-05-15T02:45:15.432Z,3.60
2023-05-15T02:47:41.872Z,3.76
2023-05-15T02:50:08.308Z,3.67
2023-05-15T02:52:34.699Z,4.12
2023-05-15T02:55:01.073Z,4.07
2023-05-15T02:57:27.455Z,4.36
2023-05-15T02:59:53.835Z,4.26
2023-05-15T03:02:20.220Z,4.57
2023-05-15T03:04:47.987Z,5.02
2023-05-15T03:07:14.468Z,4.31
2023-05-15T03:09:40.836Z,3.97
2023-05-15T03:12:07.264Z,3.77
2023-05-15T03:14:33.638Z,3.82
2023-05-15T03:17:00.024Z,3.88
2023-05-15T03:19:26.458Z,3.79
2023-05-15T03:21:52.837Z,3.73
2023-05-15T03:24:19.213Z,3.84
2023-05-15T03:26:45.604Z,3.93
2023-05-15T03:29:14.981Z,4.01
2023-05-15T03:31:41.380Z,3.98
2023-05-15T03:34:07.784Z,4.29
2023-05-15T03:36:34.169Z,4.75
2023-05-15T03:39:00.557Z,4.43
2023-05-15T03:41:26.967Z,4.46
2023-05-15T03:43:53.347Z,5.01
2023-05-15T03:46:20.258Z,5.02
2023-05-15T03:48:46.756Z,4.90
2023-05-15T03:51:13.130Z,4.89
2023-05-15T03:53:39.521Z,4.90
2023-05-15T03:56:05.954Z,4.70
2023-05-15T03:58:32.492Z,4.88
2023-05-15T04:00:58.881Z,5.16
2023-05-15T04:03:25.377Z,5.01
2023-05-15T04:05:51.829Z,4.70
2023-05-15T04:08:18.229Z,4.33
2023-05-15T04:10:44.624Z,4.45
2023-05-15T04:13:11.007Z,4.48
2023-05-15T04:15:37.378Z,4.68
2023-05-15T04:18:03.851Z,4.47
2023-05-15T04:20:30.295Z,4.32
2023-05-15T04:22:56.661Z,4.47
2023-05-15T04:25:23.273Z,4.76
2023-05-15T04:27:49.853Z,4.56
2023-05-15T04:30:16.237Z,4.46
2023-05-15T04:32:42.665Z,5.46
2023-05-15T04:35:09.053Z,5.03
2023-05-15T04:37:35.418Z,4.76
2023-05-15T04:40:01.792Z,4.56
2023-05-15T04:42:28.159Z,4.66
2023-05-15T04:44:54.533Z,4.25
2023-05-15T04:47:20.952Z,4.46
2023-05-15T04:49:47.348Z,4.72
2023-05-15T04:52:13.730Z,4.84
2023-05-15T04:54:40.130Z,5.06
2023-05-15T04:57:06.487Z,5.07
2023-05-15T04:59:32.869Z,5.25
2023-05-15T05:01:59.302Z,5.17
2023-05-15T05:04:25.726Z,4.99
2023-05-15T05:06:52.144Z,5.09
2023-05-15T05:09:18.540Z,5.22
2023-05-15T05:11:44.976Z,5.12
2023-05-15T05:14:11.456Z,5.35
2023-05-15T05:16:37.849Z,5.15
2023-05-15T05:19:04.272Z,5.45
2023-05-15T05:21:30.668Z,5.65
2023-05-15T05:23:57.101Z,5.50
2023-05-15T05:26:23.477Z,5.48
2023-05-15T05:28:49.847Z,5.09
2023-05-15T05:31:16.299Z,5.09
2023-05-15T05:33:42.705Z,5.81
2023-05-15T05:36:09.075Z,5.64
2023-05-15T05:38:35.490Z,5.77
2023-05-15T05:41:01.850Z,4.96
2023-05-15T05:43:28.234Z,5.72
2023-05-15T05:45:54.638Z,5.63
2023-05-15T05:48:21.033Z,5.56
2023-05-15T05:50:47.822Z,5.66
2023-05-15T05:53:14.310Z,5.66
2023-05-15T05:55:40.679Z,5.62
2023-05-15T05:58:14.668Z,5.75
2023-05-15T06:00:41.442Z,5.83
2023-05-15T06:03:08.076Z,5.92
2023-05-15T06:05:34.555Z,5.95
2023-05-15T06:08:00.963Z,5.78
2023-05-15T06:10:27.529Z,5.81
2023-05-15T06:12:54.019Z,5.60
2023-05-15T06:15:20.428Z,5.50
2023-05-15T06:17:46.822Z,5.25
2023-05-15T06:20:13.197Z,5.82
2023-05-15T06:22:39.584Z,5.67
2023-05-15T06:25:05.983Z,5.05
2023-05-15T06:27:32.346Z,5.67
2023-05-15T06:29:58.808Z,5.76
2023-05-15T06:32:25.239Z,5.57
2023-05-15T06:34:51.641Z,5.74
2023-05-15T06:37:18.044Z,5.84
2023-05-15T06:39:44.434Z,5.90
2023-05-15T06:42:10.822Z,6.00
2023-05-15T06:44:37.178Z,5.56
2023-05-15T06:47:03.814Z,5.55
2023-05-15T06:49:30.325Z,5.37
2023-05-15T06:51:56.720Z,5.60
2023-05-15T06:54:23.109Z,5.81
2023-05-15T06:56:49.477Z,5.78
2023-05-15T06:59:15.867Z,5.60
2023-05-15T07:01:42.296Z,5.71
2023-05-15T07:04:08.739Z,5.71
2023-05-15T07:06:35.130Z,6.12
2023-05-15T07:09:01.512Z,5.90
2023-05-15T07:11:27.891Z,5.75
2023-05-15T07:13:54.285Z,5.50
2023-05-15T07:16:20.645Z,5.30
2023-05-15T07:18:47.164Z,5.91
2023-05-15T07:21:13.630Z,6.50
2023-05-15T07:23:40.012Z,6.69
2023-05-15T07:26:07.412Z,6.77
2023-05-15T07:28:35.209Z,16.85
2023-05-15T07:31:02.850Z,21.28
2023-05-15T07:33:29.511Z,16.01
2023-05-15T07:35:56.000Z,6.71
2023-05-15T07:38:22.442Z,6.71
2023-05-15T07:40:48.873Z,6.43
2023-05-15T07:43:15.268Z,6.23
2023-05-15T07:45:41.741Z,6.53
2023-05-15T07:48:08.251Z,6.29
2023-05-15T07:50:34.711Z,6.79
2023-05-15T07:53:01.108Z,6.06
2023-05-15T07:55:27.657Z,6.29
2023-05-15T07:57:54.317Z,9.38
2023-05-15T08:00:20.708Z,6.77
2023-05-15T08:02:47.146Z,6.47
2023-05-15T08:05:13.612Z,6.33
2023-05-15T08:07:39.983Z,6.64
2023-05-15T08:10:06.530Z,7.07
2023-05-15T08:12:32.954Z,7.41
2023-05-15T08:14:59.328Z,7.25
2023-05-15T08:17:25.755Z,7.35
2023-05-15T08:19:52.161Z,10.34
2023-05-15T08:22:18.544Z,13.16
2023-05-15T08:24:44.936Z,7.22
2023-05-15T08:27:11.365Z,7.25
2023-05-15T08:29:39.448Z,7.25
2023-05-15T08:32:06.129Z,7.22
2023-05-15T08:34:32.520Z,7.24
2023-05-15T08:36:58.895Z,7.36
2023-05-15T08:39:25.283Z,7.41
2023-05-15T08:41:51.735Z,7.45
2023-05-15T08:44:18.170Z,8.91
2023-05-15T08:46:44.578Z,9.38
2023-05-15T08:49:11.104Z,7.22
2023-05-15T08:51:37.576Z,7.03
2023-05-15T08:54:03.945Z,10.48
2023-05-15T08:56:30.320Z,7.93
2023-05-15T08:58:56.698Z,7.05
2023-05-15T09:01:23.116Z,7.84
2023-05-15T09:03:49.569Z,7.91
2023-05-15T09:06:16.024Z,7.29
2023-05-15T09:08:42.521Z,7.56
2023-05-15T09:11:08.922Z,7.76
2023-05-15T09:13:35.304Z,7.55
2023-05-15T09:16:01.616Z,7.60
2023-05-15T09:18:27.976Z,7.48
2023-05-15T09:20:56.213Z,7.74
2023-05-15T09:23:22.722Z,7.28
2023-05-15T09:25:49.056Z,7.24
2023-05-15T09:28:15.371Z,7.25
2023-05-15T09:30:41.679Z,7.08
2023-05-15T09:33:08.036Z,7.71
2023-05-15T09:35:34.376Z,7.45
2023-05-15T09:38:00.684Z,7.76
2023-05-15T09:40:26.987Z,7.38
2023-05-15T09:42:53.292Z,7.50
2023-05-15T09:45:19.660Z,7.34
2023-05-15T09:47:46.110Z,7.63
2023-05-15T09:50:12.488Z,7.37
2023-05-15T09:52:38.790Z,7.51
2023-05-15T09:55:05.151Z,7.39
2023-05-15T09:57:31.452Z,7.70
2023-05-15T09:59:57.750Z,7.28
2023-05-15T10:02:24.155Z,7.56
2023-05-15T10:04:50.536Z,7.37
2023-05-15T10:07:16.856Z,7.21
2023-05-15T10:09:43.173Z,7.03
2023-05-15T10:12:09.472Z,7.38
2023-05-15T10:14:35.781Z,7.44
2023-05-15T10:17:02.118Z,7.05
2023-05-15T10:19:28.482Z,7.22
2023-05-15T10:21:54.801Z,6.70
2023-05-15T10:24:21.210Z,6.89
2023-05-15T10:26:47.527Z,6.68
2023-05-15T10:29:13.874Z,6.90
2023-05-15T10:31:40.299Z,6.90
2023-05-15T10:34:06.662Z,7.71
2023-05-15T10:36:33.118Z,7.03
2023-05-15T10:38:59.471Z,6.92
2023-05-15T10:41:25.797Z,6.90
2023-05-15T10:43:52.141Z,6.92
2023-05-15T10:46:18.490Z,7.29
2023-05-15T10:48:44.793Z,7.11
2023-05-15T10:51:11.193Z,6.66
2023-05-15T10:53:37.554Z,6.79
2023-05-15T10:56:03.889Z,6.61
2023-05-15T10:58:30.198Z,6.62
2023-05-15T11:00:56.512Z,6.75
2023-05-15T11:03:22.873Z,6.69
2023-05-15T11:05:49.195Z,6.59
2023-05-15T11:08:15.568Z,6.95
2023-05-15T11:10:41.889Z,6.72
2023-05-15T11:13:08.193Z,6.78
2023-05-15T11:15:34.527Z,6.55
2023-05-15T11:18:00.828Z,6.65
2023-05-15T11:20:27.223Z,6.43
2023-05-15T11:22:53.573Z,5.99
2023-05-15T11:25:19.878Z,6.48
2023-05-15T11:27:46.310Z,5.72
2023-05-15T11:30:12.720Z,6.45
2023-05-15T11:32:39.028Z,6.18
2023-05-15T11:35:05.345Z,5.90
2023-05-15T11:37:31.674Z,6.14
2023-05-15T11:39:57.978Z,5.95
2023-05-15T11:42:24.274Z,5.53
2023-05-15T11:44:50.587Z,5.80
2023-05-15T11:47:16.897Z,5.90
2023-05-15T11:49:43.189Z,6.09
2023-05-15T11:52:09.512Z,6.01
2023-05-15T11:54:35.814Z,6.02
2023-05-15T11:57:02.105Z,5.87
2023-05-15T11:59:28.459Z,5.56
2023-05-15T12:01:54.764Z,5.83
2023-05-15T12:04:21.233Z,5.69
2023-05-15T12:06:47.656Z,5.78
2023-05-15T12:09:14.046Z,6.22
2023-05-15T12:11:40.357Z,5.97
2023-05-15T12:14:06.665Z,6.13
2023-05-15T12:16:32.979Z,6.01
2023-05-15T12:18:59.323Z,5.77
2023-05-15T12:21:25.724Z,5.71
2023-05-15T12:24:03.389Z,5.70
2023-05-15T12:26:33.759Z,5.37
2023-05-15T12:29:00.061Z,6.01
2023-05-15T12:31:26.411Z,6.32
2023-05-15T12:33:52.768Z,6.20
2023-05-15T12:36:19.100Z,6.27
2023-05-15T12:38:45.443Z,6.01
2023-05-15T12:41:11.778Z,6.10
2023-05-15T12:43:38.071Z,6.57
2023-05-15T12:46:04.435Z,6.98
2023-05-15T12:48:30.845Z,6.70
2023-05-15T12:50:57.152Z,6.66
2023-05-15T12:53:23.472Z,6.31
2023-05-15T12:55:49.799Z,6.97
2023-05-15T12:58:16.098Z,7.23
2023-05-15T13:00:42.393Z,7.10
2023-05-15T13:03:08.834Z,7.25
2023-05-15T13:05:35.172Z,6.94
2023-05-15T13:08:01.459Z,5.76
2023-05-15T13:10:27.975Z,6.17
2023-05-15T13:12:54.415Z,6.75
2023-05-15T13:15:20.704Z,6.81
2023-05-15T13:17:47.042Z,6.85
2023-05-15T13:20:13.349Z,6.05
2023-05-15T13:22:39.638Z,5.97
2023-05-15T13:25:05.956Z,6.01
2023-05-15T13:27:32.342Z,6.34
2023-05-15T13:29:58.669Z,6.18
2023-05-15T13:32:25.043Z,6.40
2023-05-15T13:34:51.372Z,6.28
2023-05-15T13:37:17.678Z,6.07
2023-05-15T13:39:44.001Z,6.45
2023-05-15T13:42:10.298Z,6.55
2023-05-15T13:44:36.577Z,6.70
2023-05-15T13:47:02.934Z,6.22
2023-05-15T13:49:29.282Z,6.56
2023-05-15T13:51:55.579Z,7.05
2023-05-15T13:54:21.896Z,7.26
2023-05-15T13:56:48.216Z,7.72
2023-05-15T13:59:14.529Z,8.17
2023-05-15T14:01:40.842Z,7.38
2023-05-15T14:04:07.258Z,6.55
2023-05-15T14:06:33.598Z,6.70
2023-05-15T14:08:59.957Z,6.82
2023-05-15T14:11:26.255Z,6.94
2023-05-15T14:13:52.555Z,6.48
2023-05-15T14:16:18.900Z,6.80
2023-05-15T14:18:45.235Z,7.29
2023-05-15T14:21:11.589Z,7.15
2023-05-15T14:23:37.913Z,6.99
2023-05-15T14:26:04.228Z,6.57
2023-05-15T14:28:30.549Z,6.29
2023-05-15T14:30:56.870Z,6.67
2023-05-15T14:33:23.168Z,6.79
2023-05-15T14:35:49.466Z,6.32
2023-05-15T14:38:15.769Z,6.63
2023-05-15T14:40:42.064Z,6.60
2023-05-15T14:43:08.372Z,5.41
2023-05-15T14:45:34.720Z,4.49
2023-05-15T14:48:01.053Z,4.52
2023-05-15T14:50:27.555Z,4.23
2023-05-15T14:52:54.063Z,4.20
2023-05-15T14:55:20.358Z,4.05
2023-05-15T14:57:46.650Z,3.74
2023-05-15T15:00:13.001Z,4.04
2023-05-15T15:02:39.355Z,3.51
2023-05-15T15:05:05.781Z,3.99
2023-05-15T15:07:32.113Z,3.47
2023-05-15T15:09:58.419Z,3.38
2023-05-15T15:12:24.739Z,3.19
2023-05-15T15:14:51.100Z,3.25
2023-05-15T15:17:17.402Z,3.39
2023-05-15T15:19:43.694Z,3.75
2023-05-15T15:22:10.016Z,3.62
2023-05-15T15:24:36.341Z,3.74
2023-05-15T15:27:02.639Z,3.31
2023-05-15T15:29:28.966Z,3.57
2023-05-15T15:31:55.302Z,3.81
2023-05-15T15:34:21.621Z,3.41
2023-05-15T15:36:47.953Z,3.06
2023-05-15T15:39:14.547Z,2.83
2023-05-15T15:41:41.274Z,2.70
2023-05-15T15:44:07.641Z,2.64
2023-05-15T15:46:33.961Z,2.68
2023-05-15T15:49:00.264Z,2.98
2023-05-15T15:51:26.582Z,2.68
2023-05-15T15:53:52.878Z,2.82
2023-05-15T15:56:19.189Z,2.96
2023-05-15T15:58:45.503Z,2.96
2023-05-15T16:01:11.881Z,3.25
2023-05-15T16:03:38.237Z,3.39
2023-05-15T16:06:04.575Z,3.47
2023-05-15T16:08:30.859Z,3.21
2023-05-15T16:10:57.154Z,3.27
2023-05-15T16:13:23.466Z,3.45
2023-05-15T16:15:49.771Z,3.57
2023-05-15T16:18:16.097Z,3.41
2023-05-15T16:20:42.460Z,3.62
2023-05-15T16:23:08.755Z,3.61
2023-05-15T16:25:35.047Z,3.95
2023-05-15T16:28:01.629Z,3.55
2023-05-15T16:30:40.138Z,3.69
2023-05-15T16:33:14.123Z,3.30
2023-05-15T16:35:40.420Z,3.67
2023-05-15T16:38:06.728Z,3.08
2023-05-15T16:40:33.044Z,2.52
2023-05-15T16:42:59.352Z,2.63
2023-05-15T16:45:25.647Z,2.75
2023-05-15T16:47:52.070Z,2.76
2023-05-15T16:50:18.367Z,2.60
2023-05-15T16:52:44.732Z,3.08
2023-05-15T16:55:11.126Z,3.55
2023-05-15T16:57:37.438Z,3.21
2023-05-15T17:00:03.726Z,2.89
2023-05-15T17:02:30.113Z,2.61
2023-05-15T17:04:56.502Z,2.57
2023-05-15T17:07:22.813Z,2.39
2023-05-15T17:09:49.135Z,2.57
2023-05-15T17:12:15.434Z,2.47
2023-05-15T17:14:41.727Z,2.40
2023-05-15T17:17:08.071Z,2.61
2023-05-15T17:19:34.397Z,2.65
2023-05-15T17:22:00.680Z,2.46
2023-05-15T17:24:35.306Z,2.72
2023-05-15T17:27:08.844Z,2.82
2023-05-15T17:29:35.163Z,2.98
2023-05-15T17:32:01.519Z,3.10
2023-05-15T17:34:27.917Z,3.06
2023-05-15T17:36:54.235Z,3.94
2023-05-15T17:39:20.530Z,3.33
2023-05-15T17:41:46.847Z,3.04
2023-05-15T17:44:13.167Z,2.76
2023-05-15T17:46:39.463Z,3.19
2023-05-15T17:49:05.776Z,2.94
2023-05-15T17:51:32.090Z,3.12
2023-05-15T17:53:58.374Z,3.30
2023-05-15T17:56:24.660Z,3.65
2023-05-15T17:58:51.104Z,3.92
2023-05-15T18:01:17.456Z,3.25
2023-05-15T18:03:43.783Z,3.30
2023-05-15T18:06:10.111Z,3.32
2023-05-15T18:08:36.475Z,3.15
2023-05-15T18:11:11.105Z,3.18
2023-05-15T18:13:44.266Z,3.14
2023-05-15T18:16:10.612Z,3.33
2023-05-15T18:18:37.016Z,3.50
2023-05-15T18:21:03.369Z,3.38
2023-05-15T18:23:29.656Z,3.12
2023-05-15T18:25:55.964Z,3.55
2023-05-15T18:28:22.325Z,3.50
2023-05-15T18:30:48.655Z,3.65
2023-05-15T18:33:14.983Z,3.83
2023-05-15T18:35:41.308Z,3.99
2023-05-15T18:38:07.609Z,4.07
2023-05-15T18:40:33.910Z,3.93
2023-05-15T18:43:00.241Z,3.97
2023-05-15T18:45:26.663Z,3.56
2023-05-15T18:47:53.306Z,4.07
2023-05-15T18:50:19.738Z,3.81
2023-05-15T18:52:46.037Z,3.88
2023-05-15T18:55:12.344Z,4.06
2023-05-15T18:57:38.662Z,4.19
2023-05-15T19:00:04.969Z,4.84
2023-05-15T19:02:31.332Z,4.67
2023-05-15T19:04:57.711Z,4.56
2023-05-15T19:07:23.992Z,4.29
2023-05-15T19:09:50.291Z,4.77
2023-05-15T19:12:16.600Z,5.29
2023-05-15T19:14:42.890Z,5.44
2023-05-15T19:17:09.192Z,5.98
2023-05-15T19:19:35.540Z,6.45
2023-05-15T19:22:01.854Z,6.67
2023-05-15T19:24:28.152Z,7.06
2023-05-15T19:26:54.459Z,7.12
2023-05-15T19:29:20.746Z,7.48
2023-05-15T19:31:47.089Z,7.63
2023-05-15T19:34:13.464Z,7.40
2023-05-15T19:36:39.751Z,7.65
2023-05-15T19:39:06.068Z,7.06
2023-05-15T19:41:32.404Z,7.61
2023-05-15T19:43:58.706Z,8.45
2023-05-15T19:46:25.010Z,7.42
2023-05-15T19:48:51.350Z,6.98
2023-05-15T19:51:17.658Z,7.24
2023-05-15T19:53:43.959Z,7.04
2023-05-15T19:56:10.287Z,6.73
2023-05-15T19:58:36.577Z,6.90
2023-05-15T20:01:02.893Z,7.08
2023-05-15T20:03:29.376Z,7.32
2023-05-15T20:05:55.711Z,7.06
2023-05-15T20:08:22.023Z,7.13
2023-05-15T20:10:48.338Z,7.05
2023-05-15T20:13:14.630Z,8.63
2023-05-15T20:15:40.933Z,8.15
2023-05-15T20:18:07.390Z,7.28
2023-05-15T20:20:33.830Z,7.06
2023-05-15T20:23:00.167Z,7.14
2023-05-15T20:25:26.618Z,7.16
2023-05-15T20:27:53.006Z,7.44
2023-05-15T20:30:19.306Z,7.70
2023-05-15T20:32:45.728Z,7.70
2023-05-15T20:35:12.068Z,7.42
2023-05-15T20:37:38.369Z,7.96
2023-05-15T20:40:04.737Z,9.10
2023-05-15T20:42:31.029Z,8.78
2023-05-15T20:44:57.316Z,8.95
2023-05-15T20:47:23.659Z,9.26
2023-05-15T20:49:50.055Z,9.25
2023-05-15T20:52:16.341Z,9.06
2023-05-15T20:54:42.657Z,8.52
2023-05-15T20:57:08.967Z,7.69
2023-05-15T20:59:35.267Z,8.12
2023-05-15T21:02:01.586Z,8.47
2023-05-15T21:04:27.890Z,8.37
2023-05-15T21:06:54.205Z,8.13
2023-05-15T21:09:20.524Z,8.38
2023-05-15T21:11:46.825Z,7.63
2023-05-15T21:14:13.488Z,7.63
2023-05-15T21:16:39.834Z,7.42
2023-05-15T21:19:06.239Z,7.23
2023-05-15T21:21:32.625Z,7.72
2023-05-15T21:23:58.940Z,7.38
2023-05-15T21:26:25.230Z,7.36
2023-05-15T21:28:51.524Z,7.48
2023-05-15T21:31:17.875Z,7.12
2023-05-15T21:33:44.218Z,6.65
2023-05-15T21:36:10.515Z,6.76
2023-05-15T21:38:36.829Z,6.89
2023-05-15T21:41:03.131Z,6.96
2023-05-15T21:43:29.439Z,6.69
2023-05-15T21:45:55.821Z,6.54
2023-05-15T21:48:22.138Z,6.53
2023-05-15T21:50:48.425Z,6.18
2023-05-15T21:53:14.736Z,6.10
2023-05-15T21:55:41.045Z,5.86
2023-05-15T21:58:07.405Z,6.28
2023-05-15T22:00:33.711Z,6.41
2023-05-15T22:03:00.162Z,5.98
2023-05-15T22:05:26.696Z,5.72
2023-05-15T22:07:53.009Z,5.55
2023-05-15T22:10:20.438Z,5.55
2023-05-15T22:12:46.748Z,5.32
2023-05-15T22:15:13.100Z,5.32
2023-05-15T22:17:39.436Z,5.11
2023-05-15T22:20:08.415Z,5.14
2023-05-15T22:22:34.802Z,5.17
2023-05-15T22:25:01.101Z,5.20
2023-05-15T22:27:27.390Z,5.20
2023-05-15T22:29:53.708Z,5.29
2023-05-15T22:32:20.008Z,5.78
2023-05-15T22:34:46.340Z,5.74
2023-05-15T22:37:12.662Z,5.63
2023-05-15T22:39:38.961Z,4.64
2023-05-15T22:42:05.292Z,4.99
2023-05-15T22:44:31.604Z,5.13
2023-05-15T22:46:57.911Z,5.14
2023-05-15T22:49:24.291Z,4.94
2023-05-15T22:51:50.663Z,5.01
2023-05-15T22:54:16.983Z,5.12
2023-05-15T22:56:43.350Z,5.07
2023-05-15T22:59:09.650Z,5.22
2023-05-15T23:01:36.006Z,4.70
2023-05-15T23:04:02.386Z,4.71
2023-05-15T23:06:28.717Z,4.95
2023-05-15T23:08:55.001Z,4.80
2023-05-15T23:11:21.303Z,5.22
2023-05-15T23:13:47.625Z,4.84
2023-05-15T23:16:13.979Z,5.07
2023-05-15T23:18:40.371Z,5.16
2023-05-15T23:21:06.693Z,4.89
2023-05-15T23:23:32.971Z,5.24
2023-05-15T23:25:59.256Z,5.57
2023-05-15T23:28:25.566Z,5.26
2023-05-15T23:30:51.898Z,5.15
2023-05-15T23:33:18.201Z,5.32
2023-05-15T23:35:44.514Z,5.07
2023-05-15T23:38:10.818Z,5.44
2023-05-15T23:40:37.136Z,5.51
2023-05-15T23:43:03.458Z,5.68
2023-05-15T23:45:29.748Z,5.49
2023-05-15T23:47:56.097Z,5.24
2023-05-15T23:50:22.474Z,4.99
2023-05-15T23:52:48.776Z,5.11
2023-05-15T23:55:15.076Z,5.07
2023-05-15T23:57:41.436Z,5.15
